x

Olcott Harbor, Ny (olcn6) Weather Station

11:50pm - Fri 12th Feb 2016 All times are CST. -6 hours from GMT.

  • Wind
    28mph, 36mph gusts
  • Air Temp 15°f
  • Sea Pressure 1017.3mb
  • Olcott Harbor, Ny
  • Olcott Harbor, Ny

More Historic Weather Station data

Upgrade to MSW Pro to gain access to the past 30 days of data for over 8000 Wavebouys and Weather Stations around the globe.

Join Pro

Comparision Forecast

View Surf forecast
   
Fri 02/12 11:50pm 28 36 mph 1017.3mb 15f
11:40pm 26 33 mph 1016.9mb 15f
11:30pm 28 36 mph 1016.6mb 15f
11:20pm 28 37 mph 1016.6mb 16f
11:10pm 28 33 mph 1016.3mb 16f
11:00pm 29 34 mph 1015.6mb 17f
10:50pm 26 31 mph 1015.9mb 18f
10:40pm 24 33 mph 1015.6mb 18f
10:30pm 26 36 mph 1015.6mb 19f
10:20pm 29 33 mph 1014.9mb 19f
10:10pm 28 32 mph 1014.9mb 20f
10:00pm 28 33 mph 1014.2mb 19f
9:50pm 28 33 mph 1014.6mb 20f
9:40pm 24 30 mph 1014.6mb 20f
9:30pm 24 32 mph 1013.9mb 20f
9:20pm 24 31 mph 1013.9mb 20f
9:10pm 28 33 mph 1013.5mb 20f
9:00pm 30 34 mph 1013.2mb 21f
8:50pm 28 32 mph 1012.9mb 22f
8:40pm 23 31 mph 1012.5mb 22f
8:30pm 23 29 mph 1012.5mb 22f
8:20pm 25 31 mph 1012.5mb 22f
8:10pm 23 30 mph 1012.2mb 22f
7:00pm 29 36 mph 1011.5mb 24f
6:50pm 25 36 mph 1011.9mb 24f
6:40pm 31 38 mph 1011.2mb 24f
6:30pm 30 37 mph 1011.5mb 24f
6:20pm 30 36 mph 1011.2mb 25f
6:10pm 28 34 mph 1010.8mb 25f
6:00am 10 15 mph 1019.3mb 17f
5:50am 9 17 mph 1019.3mb 18f
5:40am 13 24 mph 1019.3mb 19f
5:30am 15 23 mph 1019.3mb 19f
5:20am 14 22 mph 1019.3mb 19f
5:10am 15 24 mph 1019.6mb 19f
Thu 02/11 7:00pm 26 31 mph 1023.4mb 16f
6:50pm 23 30 mph 1022.7mb 17f
6:40pm 24 28 mph 1023mb 17f
6:30pm 22 29 mph 1023mb 17f
6:20pm 25 32 mph 1023mb 17f
6:10pm 21 31 mph 1023mb 17f
5:00pm 25 33 mph 1022.4mb 17f
4:50pm 23 31 mph 1021.7mb 17f
4:40pm 24 31 mph 1021.7mb 17f
4:30pm 20 31 mph 1022mb 17f
4:20pm 22 31 mph 1021.7mb 17f
4:10pm 22 29 mph 1021.7mb 17f
4:00pm 23 31 mph 1021mb 17f
3:50pm 26 32 mph 1021mb 17f
3:40pm 25 31 mph 1021.3mb 17f
3:30pm 25 31 mph 1021mb 17f
3:20pm 24 32 mph 1020.7mb 17f
3:10pm 25 32 mph 1020.7mb 17f
1:00pm 17 24 mph 1019.6mb 14f
12:50pm 21 28 mph 1020mb 14f
12:40pm 22 29 mph 1019.3mb 14f
12:30pm 23 28 mph 1019mb 13f
12:20pm 21 26 mph 1019.3mb 13f
12:10pm 24 29 mph 1019.3mb 13f
12:00pm 17 28 mph 1019.6mb 12f
11:50am 22 34 mph 1019.3mb 12f
11:40am 23 29 mph 1019.3mb 12f
11:30am 21 26 mph 1019.3mb 12f
11:20am 18 24 mph 1019.6mb 11f
11:10am 21 25 mph 1019.6mb 11f
11:00am 22 29 mph 1019.6mb 11f
10:50am 23 28 mph 1019.3mb 11f
10:40am 23 26 mph 1019mb 11f
10:30am 18 26 mph 1019.3mb 11f
10:20am 21 25 mph 1019mb 11f
10:10am 21 25 mph 1019.3mb 11f
10:00am 20 25 mph 1019.3mb 10f
9:50am 20 26 mph 1019.3mb 10f
9:40am 23 28 mph 1018.6mb 10f
9:30am 23 30 mph 1018.3mb 10f
9:20am 21 29 mph 1018.6mb 10f
9:10am 23 28 mph 1018.3mb 10f
9:00am 24 29 mph 1018.3mb 10f
8:50am 22 30 mph 1017.9mb 10f
8:00am 22 30 mph 1017.6mb 10f
7:50am 22 29 mph 1017.3mb 10f
7:00am 21 28 mph 1016.3mb 11f
6:50am 22 30 mph 1016.3mb 11f
6:00am 25 30 mph 1015.2mb 12f
5:50am 24 32 mph 1014.9mb 12f
5:40am 25 30 mph 1014.9mb 12f
5:30am 21 31 mph 1014.6mb 13f
5:20am 23 31 mph 1014.6mb 13f
5:10am 25 31 mph 1013.9mb 13f
5:00am 25 31 mph 1013.9mb 14f
4:50am 22 33 mph 1014.2mb 14f
4:40am 25 33 mph 1013.5mb 14f
4:30am 23 30 mph 1013.5mb 14f
4:20am 25 30 mph 1013.5mb 14f
4:10am 29 33 mph 1013.5mb 14f
4:00am 24 29 mph 1012.9mb 14f
3:50am 25 30 mph 1012.9mb 15f
3:40am 22 31 mph 1012.5mb 15f
3:30am 23 30 mph 1012.2mb 15f
3:20am 24 30 mph 1011.5mb 15f
3:10am 25 32 mph 1011.9mb 15f
2:00am 29 40 mph 1010.8mb 17f
1:50am 31 39 mph 1010.8mb 17f
1:40am 34 40 mph 1010.2mb 18f
1:30am 29 40 mph 1010.5mb 18f
1:20am 29 34 mph 1010.5mb 18f
1:10am 32 39 mph 1010.5mb 19f
12:00am 30 33 mph 1010.2mb 20f
Wed 02/10 11:50pm 21 32 mph 1010.2mb 20f
11:40pm 24 36 mph 1010.2mb 21f
11:30pm 25 36 mph 1010.2mb 21f
11:20pm 28 32 mph 1010.2mb 20f
11:10pm 26 40 mph 1010.2mb 21f
11:00pm 28 37 mph 1009.8mb 21f
10:50pm 26 33 mph 1010.5mb 21f
10:40pm 29 34 mph 1010.5mb 21f
10:30pm 26 33 mph 1010.2mb 21f
10:20pm 25 38 mph 1010.2mb 21f
10:10pm 29 34 mph 1010.2mb 21f
10:00pm 26 36 mph 1010.2mb 21f
9:50pm 29 36 mph 1009.8mb 22f
9:40pm 31 37 mph 1009.8mb 21f
9:30pm 25 33 mph 1010.2mb 21f
9:20pm 30 33 mph 1009.8mb 21f
9:10pm 26 32 mph 1010.2mb 22f
9:00pm 25 34 mph 1009.8mb 21f
8:50pm 26 32 mph 1009.8mb 21f
8:40pm 28 33 mph 1009.8mb 21f
8:30pm 25 36 mph 1009.5mb 22f
8:20pm 28 34 mph 1009.8mb 22f
8:10pm 29 34 mph 1009.8mb 22f
8:00pm 29 32 mph 1009.5mb 22f
7:50pm 29 36 mph 1009.5mb 22f
7:40pm 31 39 mph 1009.5mb 22f
7:30pm 29 38 mph 1008.8mb 22f
7:20pm 28 34 mph 1008.8mb 23f
7:10pm 30 38 mph 1008.8mb 23f
7:00pm 30 37 mph 1008.5mb 23f
6:50pm 29 38 mph 1008.8mb 24f
6:40pm 25 38 mph 1008.8mb 24f
6:30pm 30 38 mph 1008.8mb 23f
6:20pm 29 34 mph 1008.8mb 23f
6:10pm 24 34 mph 1008.8mb 22f
6:00pm 26 33 mph 1008.5mb 24f
5:50pm 25 32 mph 1008.5mb 24f
5:40pm 24 32 mph 1008.5mb 24f
5:30pm 26 30 mph 1008.8mb 23f
5:20pm 18 26 mph 1008.8mb 22f
5:10pm 17 25 mph 1008.5mb 22f
5:00pm 14 28 mph 1008.5mb 23f
4:50pm 22 26 mph 1007.8mb 23f
4:40pm 13 20 mph 1008.1mb 22f
4:30pm 15 29 mph 1007.8mb 22f
4:20pm 14 18 mph 1007.8mb 22f
4:10pm 14 24 mph 1007.8mb 22f
4:00pm 15 25 mph 1007.5mb 23f
3:50pm 16 24 mph 1007.1mb 23f
3:40pm 16 22 mph 1006.8mb 23f
3:30pm 10 22 mph 1006.8mb 24f
3:20pm 15 24 mph 1006.4mb 24f
3:10pm 16
mph
1006.4mb 24f
3:00pm 45
mph
1006.4mb 25f
2:50pm 21
mph
1006.4mb 25f
2:40pm 11 24 mph 1006.4mb 25f
2:30pm 13 21 mph 1006.1mb 25f
2:20pm 14 20 mph 1005.8mb 25f
2:10pm 15 20 mph 1005.8mb 25f
2:00pm 10 17 mph 1005.8mb 26f
1:50pm 10 16 mph 1005.4mb 25f
1:40pm 13 17 mph 1005.4mb 25f
1:30pm 13 18 mph 1005.1mb 26f
1:20pm 13 18 mph 1005.1mb 26f
1:10pm 13 25 mph 1005.1mb 26f
1:00pm 17
mph
1005.1mb 26f
12:50pm 11
mph
1005.1mb 26f
12:40pm 11
mph
1005.1mb 26f
12:30pm 15
mph
1004.7mb 27f
12:20pm 15
mph
1004.7mb 27f
12:10pm 15 61 mph 1004.7mb 27f
12:00pm  -  mph 1004.4mb 27f
11:50am 54
mph
1004.4mb 27f
11:40am 21 25 mph 1004.7mb 27f
11:30am 20 41 mph 1004.7mb 27f
11:20am 32 67 mph 1004.7mb 27f
11:10am 18
mph
1004.7mb 27f
11:00am  -  mph 1004.7mb 27f
10:50am  -  mph 1004.7mb 27f
10:40am  -  mph 1004.7mb 27f
10:30am  -  mph 1004.7mb 27f
10:20am 13 17 mph 1005.1mb 26f
10:10am 14 18 mph 1005.1mb 26f
10:00am 10 18 mph 1004.7mb 26f
9:50am 13 17 mph 1004.7mb 26f
9:40am 13 17 mph 1004.7mb 26f
9:30am 10 16 mph 1004.7mb 26f
9:20am 10 20 mph 1004.4mb 26f
9:10am 14 21 mph 1004.4mb 26f
9:00am 15 20 mph 1004.4mb 26f
8:50am 10 14 mph 1004.4mb 26f
8:40am 11 18 mph 1004.4mb 26f
8:30am 13 20 mph 1004.1mb 27f
8:20am 14 20 mph 1004.1mb 27f
8:10am 14 18 mph 1004.1mb 27f
8:00am 13 20 mph 1004.1mb 27f
7:50am 13 20 mph 1004.1mb 28f
7:40am 11 24 mph 1003.7mb 28f
7:30am 22 26 mph 1003.4mb 29f
7:20am 24 31 mph 1003.4mb 29f
7:10am 24 31 mph 1003mb 29f
7:00am 24 31 mph 1002.7mb 29f
6:50am 24 31 mph 1003mb 29f
6:40am 25 31 mph 1002.7mb 29f
6:30am 28 30 mph 1002.7mb 29f
6:20am 26 31 mph 1002.4mb 29f
6:10am 26 32 mph 1002mb 29f
6:00am 28 31 mph 1002mb 29f
5:50am 28 32 mph 1002mb 29f
5:40am 28 30 mph 1002mb 30f
5:30am 25 32 mph 1001.7mb 30f
5:20am 26 31 mph 1001.4mb 30f
5:10am 26 31 mph 1001.4mb 30f
5:00am 26 30 mph 1001.4mb 30f
4:50am 26 31 mph 1001.4mb 31f
4:40am 28 32 mph 1001mb 31f
4:30am 29 33 mph 1000.7mb 31f
4:20am 28 31 mph 1000.7mb 31f
4:10am 30 32 mph 1000.3mb 31f
4:00am 29 32 mph 1000.3mb 31f
3:50am 29 32 mph 1000.3mb 31f
3:40am 28 32 mph 1000.3mb 31f
3:30am 26 31 mph 1000.3mb 31f
3:20am 24 29 mph 1000.3mb 31f
3:10am 24 33 mph 999.7mb 31f
2:00am 22 28 mph 999.7mb 33f
1:50am 23 26 mph 999.7mb 33f
1:40am 23 25 mph 999.3mb 33f
1:30am 16 21 mph 999.7mb 31f
1:20am 11 14 mph 999.7mb 31f
1:10am 10 16 mph 999.7mb 31f
1:00am 11 20 mph 999.7mb 31f
12:50am 9 18 mph 999.3mb 31f
12:40am 11 16 mph 999.3mb 31f
12:30am 9 17 mph 999.7mb 31f
12:20am 11 16 mph 999.7mb 31f
12:10am 11 16 mph 999.7mb 31f
12:00am 10 15 mph 999.7mb 31f
Tue 02/09 11:50pm 9 14 mph 999.7mb 31f
11:40pm 8 17 mph 999.7mb 31f
11:30pm 7 14 mph 999.7mb 32f
11:20pm 8 14 mph 999.7mb 31f
11:10pm 8 14 mph 999.7mb 31f
11:00pm 9 13 mph 999.7mb 31f
10:50pm 7 13 mph 999.7mb 31f
10:40pm 11 21 mph 1000mb 31f
10:30pm 9 15 mph 999.7mb 31f
10:20pm 8 14 mph 1000mb 32f
10:10pm 7 20 mph 1000.3mb 32f
10:00pm 6 14 mph 1000.3mb 32f
9:50pm 11 17 mph 1000.3mb 32f
9:40pm 7 13 mph 1000.3mb 32f
9:30pm 9 16 mph 1000.7mb 32f
9:20pm 8 13 mph 1001mb 32f
9:10pm 9 14 mph 1001mb 32f
9:00pm 10 15 mph 1001mb 32f
8:50pm 11 18 mph 1001mb 32f
8:40pm 13 18 mph 1001mb 32f
8:30pm 13 16 mph 1001mb 32f
8:20pm 11 17 mph 1001mb 33f
8:10pm 11 21 mph 1001.4mb 33f
8:00pm 11 17 mph 1001mb 33f
7:50pm 14 22 mph 1001.4mb 33f
7:40pm 16 23 mph 1001.4mb 33f
7:30pm 11 15 mph 1001.4mb 34f
7:20pm 11 16 mph 1001.4mb 34f
7:10pm 9 20 mph 1001.4mb 34f
7:00pm 14 23 mph 1001.4mb 34f
6:50pm 9 22 mph 1001.4mb 34f
6:40pm 11 15 mph 1001.4mb 35f
6:30pm 9 15 mph 1001.4mb 35f
6:20pm 8 16 mph 1001.4mb 35f
6:10pm 9 18 mph 1001.4mb 35f
6:00pm 10 17 mph 1001.4mb 35f
5:50pm 14 18 mph 1001.4mb 35f
5:40pm 10 16 mph 1001.4mb 35f
5:30pm 10 15 mph 1001.4mb 35f
5:20pm 9 16 mph 1001.4mb 35f
5:10pm 10 17 mph 1001.4mb 35f
5:00pm 10 17 mph 1001mb 35f
4:50pm 9 18 mph 1001mb 36f
4:40pm 10 18 mph 1001mb 36f
4:30pm 9 17 mph 1000.7mb 36f
4:20pm 11 17 mph 1000.7mb 36f
4:10pm 9 14 mph 1000.7mb 36f
4:00pm 10 15 mph 1000.7mb 36f
3:50pm 11 16 mph 1000.7mb 36f
3:40pm 11 17 mph 1000.7mb 37f
3:30pm 13 22 mph 1000.3mb 37f
3:20pm 10 15 mph 1000.3mb 37f
3:10pm 7 15 mph 1000.3mb 37f
3:00pm 10 16 mph 1000mb 37f
2:50pm 13 20 mph 1000mb 37f
2:40pm 10 16 mph 1000mb 37f
2:30pm 14 18 mph 1000mb 38f
2:20pm 9 15 mph 999.7mb 38f
2:10pm 11 22 mph 999.7mb 38f
2:00pm 10 17 mph 999.3mb 38f
1:50pm 11 21 mph 999.7mb 38f
1:40pm 11 17 mph 999.3mb 38f
1:30pm 13 20 mph 999.3mb 38f
1:20pm 14 18 mph 999.3mb 38f
1:10pm 11 18 mph 999.3mb 39f
1:00pm 10 17 mph 999.3mb 39f
12:50pm 11 18 mph 999.3mb 39f
12:40pm 13 16 mph 999.3mb 38f
12:30pm 7 9 mph 999.3mb 37f
12:20pm 7 9 mph 999.7mb 37f
12:10pm 7 8 mph 1000mb 37f
12:00pm 8 10 mph 1000mb 37f
11:50am 8 11 mph 1000.3mb 37f
11:40am 8 13 mph 1000.3mb 37f
11:30am 11 15 mph 1000.3mb 38f
11:20am 8 14 mph 1000.3mb 38f
11:10am 8 11 mph 1000.7mb 37f
11:00am 7 10 mph 1000.7mb 37f
10:50am 10 16 mph 1000.7mb 37f
10:40am 6 13 mph 1001mb 38f
10:30am 8 10 mph 1001mb 37f
10:20am 7 10 mph 1001mb 37f
10:10am 6 9 mph 1001mb 37f
10:00am 6 8 mph 1001mb 37f
9:50am 3 7 mph 1001mb 37f
9:40am 6 8 mph 1001mb 37f
9:30am 5 8 mph 1001mb 36f
9:20am 2 7 mph 1001.4mb 36f
9:10am 3 6 mph 1001mb 36f
9:00am 3 7 mph 1001.4mb 36f
8:50am 6 10 mph 1001.4mb 36f
8:40am 5 7 mph 1001.4mb 36f
8:30am 5 7 mph 1001mb 36f
8:20am 6 9 mph 1001mb 36f
8:10am 5 6 mph 1001mb 35f
8:00am 3 6 mph 1001mb 35f
7:50am 3 6 mph 1001mb 35f
7:40am 3 7 mph 1001mb 35f
7:30am 5 6 mph 1001mb 35f
7:20am 5 8 mph 1001mb 35f
7:10am 3 5 mph 1001mb 35f
7:00am 1 3 mph 1000.7mb 35f